Time;durP1;ratioP1;P1;durP2;ratioP2;P2;SDS_P1;SDS_P2;PMS_P1;PMS_P2;Temp;Humidity;BMP_temperature;BMP_pressure;BME280_temperature;BME280_humidity;BME280_pressure;Samples;Min_cycle;Max_cycle;Signal;HPM_P1;HPM_P2
2023/08/11 00:01:11;;;;;;;3.78;2.38;;;;;;;17.18;59.75;101011.38;21065653;28;20258;-79
2023/08/11 00:11:13;;;;;;;6.65;2.42;;;;;;;17.09;58.89;101010.66;21038853;28;20698;-78
2023/08/11 00:21:16;;;;;;;4.75;2.05;;;;;;;17.66;57.17;101011.66;21058607;28;20286;-79
2023/08/11 00:31:19;;;;;;;4.20;1.92;;;;;;;17.33;57.80;101009.00;21057319;28;20244;-79
2023/08/11 00:41:21;;;;;;;7.13;2.30;;;;;;;17.61;56.69;101004.19;21050609;28;20263;-79
2023/08/11 00:51:24;;;;;;;2.25;1.80;;;;;;;17.51;56.23;100997.00;21070607;28;20308;-79
2023/08/11 01:01:27;;;;;;;4.40;1.77;;;;;;;17.04;58.31;100999.53;21022308;28;20645;-80
2023/08/11 01:11:38;;;;;;;2.72;2.30;;;;;;;16.95;58.49;100990.31;21059454;28;20201;-79
2023/08/11 01:21:44;;;;;;;2.63;2.15;;;;;;;17.24;57.30;100979.88;21011883;28;20218;-79
2023/08/11 01:31:47;;;;;;;1.88;1.35;;;;;;;16.51;60.42;100984.38;21037553;28;20217;-80
2023/08/11 01:41:50;;;;;;;4.00;1.73;;;;;;;16.63;60.02;100968.53;21053221;28;20244;-80
2023/08/11 01:51:54;;;;;;;2.65;1.77;;;;;;;16.74;58.76;100967.72;21035129;28;20222;-79
2023/08/11 02:01:57;;;;;;;4.57;1.95;;;;;;;16.54;59.79;100967.81;21050688;28;20230;-79
2023/08/11 02:12:00;;;;;;;6.00;2.03;;;;;;;16.54;59.82;100964.97;21031885;28;20248;-80
2023/08/11 02:22:03;;;;;;;4.00;2.40;;;;;;;16.55;59.44;100969.47;21028807;28;20507;-80
2023/08/11 02:32:07;;;;;;;2.00;1.63;;;;;;;16.54;59.97;100962.13;21018692;28;20224;-80
2023/08/11 02:42:10;;;;;;;8.13;2.40;;;;;;;16.03;61.65;100950.19;21014862;28;20222;-80
2023/08/11 02:52:12;;;;;;;3.58;1.92;;;;;;;15.73;62.10;100953.13;21016018;28;20218;-80
2023/08/11 03:02:16;;;;;;;3.17;2.33;;;;;;;16.50;59.78;100942.94;21030463;28;20253;-80
2023/08/11 03:12:19;;;;;;;7.55;2.92;;;;;;;16.27;60.42;100940.88;21013347;28;20244;-81
2023/08/11 03:22:22;;;;;;;6.40;2.88;;;;;;;16.56;59.16;100937.03;21028652;28;20226;-80
2023/08/11 03:32:25;;;;;;;2.63;1.98;;;;;;;16.33;60.00;100936.63;21029649;28;20198;-79
2023/08/11 03:42:29;;;;;;;5.25;2.10;;;;;;;16.26;59.90;100931.53;21043978;28;20626;-80
2023/08/11 03:52:33;;;;;;;4.50;1.83;;;;;;;16.22;59.99;100927.75;21034997;28;20244;-80
2023/08/11 04:02:36;;;;;;;2.53;1.98;;;;;;;16.40;59.23;100914.97;21052734;28;20291;-79
2023/08/11 04:12:40;;;;;;;5.38;2.22;;;;;;;16.07;60.84;100931.28;21048013;28;20195;-80
2023/08/11 04:22:43;;;;;;;6.28;2.13;;;;;;;16.46;58.55;100935.47;21024954;28;20219;-80
2023/08/11 04:32:46;;;;;;;4.72;1.75;;;;;;;16.22;59.91;100936.28;21011049;28;20332;-79
2023/08/11 04:42:50;;;;;;;7.35;2.25;;;;;;;16.28;59.39;100939.69;21064419;28;20287;-79
2023/08/11 04:52:57;;;;;;;6.43;2.38;;;;;;;16.10;60.82;100936.25;21057954;28;20194;-79
2023/08/11 05:03:00;;;;;;;4.72;2.03;;;;;;;16.24;60.24;100935.94;21031396;28;20226;-78
2023/08/11 05:13:04;;;;;;;2.88;2.35;;;;;;;16.57;59.77;100930.16;21044673;28;20641;-79
2023/08/11 05:23:07;;;;;;;8.07;3.30;;;;;;;16.33;59.75;100930.97;21042750;28;20222;-79
2023/08/11 05:33:14;;;;;;;6.68;2.75;;;;;;;17.03;57.28;100918.25;21048614;28;20649;-82
2023/08/11 05:43:17;;;;;;;7.88;2.97;;;;;;;17.17;58.01;100930.06;21045737;28;20534;-79
2023/08/11 05:53:20;;;;;;;5.05;2.58;;;;;;;17.10;58.85;100923.34;21058733;28;20583;-79
2023/08/11 06:03:29;;;;;;;6.43;2.63;;;;;;;17.60;55.96;100922.84;21030507;28;20222;-81
2023/08/11 06:13:32;;;;;;;5.30;2.30;;;;;;;17.69;56.18;100914.97;21059321;28;20243;-80
2023/08/11 06:23:34;;;;;;;5.93;2.38;;;;;;;18.30;52.60;100908.94;21054411;28;20219;-80
2023/08/11 06:33:37;;;;;;;5.68;2.10;;;;;;;18.37;52.81;100909.09;21070698;28;20186;-80
2023/08/11 06:43:40;;;;;;;7.00;2.03;;;;;;;18.41;51.67;100904.31;21037322;28;20222;-82
2023/08/11 06:53:42;;;;;;;2.85;1.63;;;;;;;18.18;50.71;100900.47;21031076;28;20547;-82
2023/08/11 07:03:45;;;;;;;2.38;1.60;;;;;;;18.83;50.12;100896.03;21050300;28;20225;-80
2023/08/11 07:13:47;;;;;;;2.20;1.30;;;;;;;19.19;48.97;100896.81;21035732;28;20194;-81
2023/08/11 07:23:50;;;;;;;3.10;1.25;;;;;;;19.78;49.00;100896.44;21067827;28;20221;-82
2023/08/11 07:33:53;;;;;;;1.60;1.50;;;;;;;19.78;50.40;100901.31;21073524;28;20243;-82
2023/08/11 07:43:55;;;;;;;3.53;1.15;;;;;;;20.71;45.82;100898.94;21016775;28;20773;-80
2023/08/11 07:53:58;;;;;;;3.83;1.50;;;;;;;20.19;49.12;100896.81;21009288;28;20202;-80
2023/08/11 08:04:00;;;;;;;2.97;0.93;;;;;;;21.56;43.52;100899.34;21011627;28;20236;-82
2023/08/11 08:14:03;;;;;;;3.55;1.80;;;;;;;21.87;44.05;100900.94;21072114;28;20259;-82
2023/08/11 08:24:07;;;;;;;2.78;1.25;;;;;;;22.12;41.39;100908.56;21056437;28;20280;-80
2023/08/11 08:34:10;;;;;;;3.30;1.40;;;;;;;22.08;41.41;100922.03;21025663;28;20272;-79
2023/08/11 08:44:13;;;;;;;2.33;1.30;;;;;;;22.29;41.49;100906.28;21013044;28;20230;-80
2023/08/11 08:54:16;;;;;;;4.97;1.45;;;;;;;23.20;40.54;100905.38;21024516;28;20213;-83
2023/08/11 09:04:20;;;;;;;3.03;1.38;;;;;;;23.14;39.29;100912.69;21057545;28;20226;-83
2023/08/11 09:14:23;;;;;;;4.53;1.65;;;;;;;23.15;39.13;100903.69;21042085;28;20186;-81
2023/08/11 09:24:29;;;;;;;2.20;1.52;;;;;;;23.66;39.17;100899.84;21038532;28;20259;-81
2023/08/11 09:34:31;;;;;;;1.55;1.40;;;;;;;23.60;38.88;100904.34;21038008;28;20194;-79
2023/08/11 09:44:34;;;;;;;3.70;1.38;;;;;;;23.48;38.63;100899.75;21022765;28;20280;-82
2023/08/11 09:54:38;;;;;;;1.35;1.00;;;;;;;24.68;37.08;100898.38;20951227;28;20222;-80
2023/08/11 10:04:56;;;;;;;2.47;1.23;;;;;;;25.04;36.57;100892.56;20999813;28;20252;-83
2023/08/11 10:14:59;;;;;;;4.90;1.30;;;;;;;24.84;35.36;100890.13;20946523;28;20195;-80
2023/08/11 10:25:04;;;;;;;2.50;1.42;;;;;;;24.76;36.11;100890.56;20946062;28;20237;-83
2023/08/11 10:35:13;;;;;;;2.05;1.60;;;;;;;25.12;34.41;100882.66;20971354;28;20183;-79
2023/08/11 10:45:18;;;;;;;2.67;1.30;;;;;;;25.35;34.73;100873.53;20954839;28;20284;-83
2023/08/11 10:55:21;;;;;;;2.25;1.42;;;;;;;25.22;33.06;100864.53;20981471;28;20199;-83
2023/08/11 11:05:23;;;;;;;1.88;1.20;;;;;;;26.20;33.57;100852.88;20990038;28;20628;-78
2023/08/11 11:15:29;;;;;;;3.08;1.55;;;;;;;25.50;32.47;100858.66;20955375;28;20191;-80
2023/08/11 11:25:32;;;;;;;4.22;1.70;;;;;;;26.25;32.94;100859.03;20944090;28;20248;-81
2023/08/11 11:35:34;;;;;;;2.80;1.52;;;;;;;25.53;31.07;100863.59;20949923;28;20199;-82
2023/08/11 11:45:37;;;;;;;1.83;1.30;;;;;;;26.21;30.41;100852.47;21024780;28;20221;-82
2023/08/11 11:55:47;;;;;;;3.22;1.30;;;;;;;26.88;32.08;100856.84;21043498;28;20195;-82
2023/08/11 12:05:52;;;;;;;1.77;1.48;;;;;;;27.26;30.71;100849.00;21056241;28;20642;-83
2023/08/11 12:15:55;;;;;;;3.92;1.40;;;;;;;27.18;29.51;100844.50;21058140;28;20216;-81
2023/08/11 12:25:57;;;;;;;2.40;1.27;;;;;;;27.65;29.74;100841.84;21084213;28;20284;-82
2023/08/11 12:36:00;;;;;;;4.93;1.30;;;;;;;27.30;30.04;100846.03;21055013;28;20218;-81
2023/08/11 12:46:03;;;;;;;7.25;1.98;;;;;;;27.67;30.04;100819.06;21072764;28;20241;-80
2023/08/11 12:56:06;;;;;;;1.90;1.30;;;;;;;27.33;29.12;100824.94;21052399;28;20236;-83
2023/08/11 13:06:09;;;;;;;1.92;1.25;;;;;;;27.61;28.94;100830.34;21060385;28;20359;-79
2023/08/11 13:16:12;;;;;;;3.03;1.45;;;;;;;27.01;29.79;100814.59;21047841;28;20354;-84
2023/08/11 13:26:15;;;;;;;3.88;1.98;;;;;;;27.88;29.46;100815.91;21029991;28;20287;-81
2023/08/11 13:36:18;;;;;;;6.47;1.50;;;;;;;27.79;29.61;100809.03;21061354;28;20255;-83
2023/08/11 13:46:21;;;;;;;3.08;1.90;;;;;;;28.02;29.62;100803.28;21033281;28;20245;-82
2023/08/11 13:56:24;;;;;;;3.03;1.92;;;;;;;27.92;30.55;100792.72;21036242;28;20194;-82
2023/08/11 14:06:26;;;;;;;2.28;1.70;;;;;;;27.90;29.84;100790.25;21004436;28;20548;-80
2023/08/11 14:16:29;;;;;;;3.20;2.03;;;;;;;27.23;31.40;100788.31;21067832;28;20622;-79
2023/08/11 14:26:32;;;;;;;6.75;2.20;;;;;;;27.77;31.44;100773.94;21043131;28;20279;-79
2023/08/11 14:36:34;;;;;;;4.03;2.28;;;;;;;28.40;30.63;100778.66;21069379;28;20186;-80
2023/08/11 14:46:37;;;;;;;3.45;2.10;;;;;;;27.93;31.13;100768.28;20978489;28;20566;-82
2023/08/11 14:56:41;;;;;;;4.72;2.15;;;;;;;28.31;31.71;100752.38;20933820;28;20199;-79
2023/08/11 15:06:44;;;;;;;3.22;2.22;;;;;;;28.25;31.83;100759.88;20956634;28;20709;-81
2023/08/11 15:16:46;;;;;;;3.58;2.10;;;;;;;28.10;31.27;100758.50;20936645;28;20190;-81
2023/08/11 15:26:49;;;;;;;3.67;2.55;;;;;;;28.10;31.05;100753.53;20911129;28;20215;-79
2023/08/11 15:36:53;;;;;;;2.70;1.98;;;;;;;28.04;31.19;100737.94;20912889;28;20290;-81
2023/08/11 15:46:56;;;;;;;2.97;2.13;;;;;;;28.68;31.73;100730.97;20971033;28;20226;-81
2023/08/11 15:56:59;;;;;;;5.10;2.20;;;;;;;28.35;30.57;100724.16;20996615;28;20487;-80
2023/08/11 16:07:02;;;;;;;3.70;2.50;;;;;;;27.82;31.92;100706.91;21011222;28;20222;-79
2023/08/11 16:17:05;;;;;;;4.10;2.38;;;;;;;27.64;31.33;100713.00;21001816;28;20195;-81
2023/08/11 16:27:08;;;;;;;4.65;2.28;;;;;;;28.18;30.61;100707.94;21043930;28;20223;-81
2023/08/11 16:37:11;;;;;;;5.28;2.40;;;;;;;28.15;31.84;100697.25;21042065;28;20202;-81
2023/08/11 16:47:14;;;;;;;4.80;2.67;;;;;;;27.68;32.67;100700.09;21021254;28;20222;-81
2023/08/11 16:57:16;;;;;;;4.30;2.58;;;;;;;28.22;30.91;100704.94;21011527;28;20249;-81
2023/08/11 17:07:19;;;;;;;6.75;2.53;;;;;;;28.50;31.46;100692.84;21045498;28;20279;-82
2023/08/11 17:17:22;;;;;;;6.63;3.08;;;;;;;28.33;31.05;100697.72;21028320;28;20656;-82
2023/08/11 17:27:25;;;;;;;4.00;2.50;;;;;;;28.44;31.26;100674.38;21042669;28;20247;-81
2023/08/11 17:37:27;;;;;;;9.35;4.75;;;;;;;27.95;34.92;100674.03;21016811;28;20256;-83
2023/08/11 17:47:31;;;;;;;6.40;3.65;;;;;;;27.70;35.75;100665.78;21049556;28;20648;-81
2023/08/11 17:57:34;;;;;;;4.05;3.33;;;;;;;27.22;38.33;100668.19;21023616;28;20195;-79
2023/08/11 18:07:38;;;;;;;3.92;2.92;;;;;;;27.08;37.59;100691.53;21023481;28;20227;-80
2023/08/11 18:17:40;;;;;;;9.95;5.57;;;;;;;26.78;38.61;100706.78;21024995;28;20190;-80
2023/08/11 18:27:43;;;;;;;8.07;6.60;;;;;;;26.74;37.72;100689.47;21028506;28;20267;-83
2023/08/11 18:37:46;;;;;;;10.57;8.93;;;;;;;26.37;39.53;100675.91;21027332;28;20195;-85
2023/08/11 18:47:56;;;;;;;14.40;10.38;;;;;;;25.89;40.73;100685.44;21007794;28;20226;-78
2023/08/11 18:57:59;;;;;;;11.15;7.25;;;;;;;25.70;42.36;100696.72;21009531;28;20695;-79
2023/08/11 19:08:01;;;;;;;11.15;6.72;;;;;;;24.91;45.35;100700.09;21014952;28;20290;-79
2023/08/11 19:18:04;;;;;;;5.95;4.65;;;;;;;25.43;44.67;100694.47;21031148;28;20190;-85
2023/08/11 19:28:07;;;;;;;9.27;4.07;;;;;;;25.34;45.06;100687.50;20993028;28;20218;-84
2023/08/11 19:38:10;;;;;;;5.18;3.97;;;;;;;24.89;47.00;100685.31;21016431;28;20190;-80
2023/08/11 19:48:12;;;;;;;7.63;4.65;;;;;;;24.62;47.63;100669.78;21032332;28;20230;-87
2023/08/11 19:58:15;;;;;;;6.20;4.15;;;;;;;24.99;47.69;100677.03;20986299;28;20202;-86
2023/08/11 20:08:18;;;;;;;6.57;4.60;;;;;;;23.77;50.38;100675.72;21040989;28;20230;-82
2023/08/11 20:18:21;;;;;;;9.10;5.20;;;;;;;24.76;48.29;100658.22;21016381;28;20221;-78
2023/08/11 20:28:25;;;;;;;9.43;5.57;;;;;;;24.41;49.29;100658.38;21021897;28;20511;-82
2023/08/11 20:38:28;;;;;;;7.10;4.80;;;;;;;23.92;51.36;100657.22;21004227;28;20573;-83
2023/08/11 20:48:31;;;;;;;8.18;5.45;;;;;;;23.78;52.02;100655.16;20993129;28;20218;-81
2023/08/11 20:58:34;;;;;;;7.00;5.10;;;;;;;24.56;49.92;100652.13;21023563;28;20198;-83
2023/08/11 21:08:44;;;;;;;8.80;5.35;;;;;;;24.07;51.75;100632.13;20998050;28;20250;-84
2023/08/11 21:18:47;;;;;;;7.55;5.53;;;;;;;23.49;50.71;100630.56;21032594;28;20575;-84
2023/08/11 21:28:49;;;;;;;7.85;5.38;;;;;;;23.80;50.27;100620.28;21037464;28;20214;-82
2023/08/11 21:38:52;;;;;;;8.35;4.95;;;;;;;23.74;49.16;100624.81;21024564;28;20195;-79
2023/08/11 21:48:54;;;;;;;6.43;4.90;;;;;;;24.42;48.20;100619.72;21038948;28;20440;-82
2023/08/11 21:58:57;;;;;;;8.60;5.88;;;;;;;24.34;48.58;100621.81;21072559;28;20583;-84
2023/08/11 22:09:00;;;;;;;14.98;5.82;;;;;;;22.82;51.68;100669.38;21065353;28;20561;-83
2023/08/11 22:19:02;;;;;;;8.25;5.25;;;;;;;23.36;49.58;100673.22;21063975;28;20252;-85
2023/08/11 22:29:05;;;;;;;6.53;5.00;;;;;;;23.08;53.54;100696.97;21013221;28;20246;-79
2023/08/11 22:39:07;;;;;;;8.48;5.70;;;;;;;22.60;57.61;100721.34;20994945;28;20218;-79
2023/08/11 22:49:10;;;;;;;8.85;5.90;;;;;;;22.84;60.12;100746.47;20993078;28;20245;-85
2023/08/11 22:59:12;;;;;;;15.40;8.32;;;;;;;22.19;64.21;100764.50;20973714;28;20222;-86
2023/08/11 23:09:15;;;;;;;12.88;9.48;;;;;;;22.30;65.17;100770.28;21005090;28;20246;-79
2023/08/11 23:19:18;;;;;;;14.40;9.55;;;;;;;21.30;68.61;100772.22;21031486;28;20226;-86
2023/08/11 23:29:21;;;;;;;17.55;11.35;;;;;;;21.59;67.57;100766.78;21049667;28;20260;-78
2023/08/11 23:39:24;;;;;;;21.75;13.52;;;;;;;21.08;72.27;100773.16;20997182;28;20800;-91
2023/08/11 23:49:27;;;;;;;23.20;16.30;;;;;;;21.22;70.33;100776.22;21012685;28;20319;-90
2023/08/11 23:59:29;;;;;;;23.73;17.05;;;;;;;21.60;71.18;100766.41;21001475;28;20602;-79
